Flight Track Log - Related Links

Times and Time Zones

All times are in EDT time to prevent confusion due to time zone crossing. See the EGF4174 flight status page for this flight to view local times or setup timezone preferences in your user account.

Time Position Orientation Groundspeed Altitude Reporting Facility
EDT Latitude Longitude Course Direction KTS MPH feet Rate Location/Type
Fri 06:56:20 PM 43.1089 -76.0950 286° West 153 176 1,000  Level Boston Center
Fri 06:56:56 PM 43.1142 -76.0556 80° East 176 203 2,100 2,000 Climbing Boston Center
Fri 06:58:00 PM 43.1875 -76.4375 324° Northwest  Level FlightAware Approximate
Fri 06:58:56 PM 43.1581 -76.1828 295° West 228 262 6,200  Level Cleveland Center
Fri 06:59:00 PM 43.2073 -76.5510 281° West  Level FlightAware Approximate
Fri 06:59:56 PM 43.1744 -76.2811 283° West 243 280 8,500  Level Cleveland Center
Fri 07:00:00 PM 43.2283 -76.6707 286° West  Level FlightAware Approximate
Fri 07:00:56 PM 43.1908 -76.3883 282° West 277 319 10,500  Level Cleveland Center
Fri 07:01:00 PM 43.2536 -76.7889 286° West  Level FlightAware Approximate
Fri 07:01:56 PM 43.2114 -76.5008 284° West 302 348 11,700  Level Cleveland Center
Fri 07:02:56 PM 43.2300 -76.6108 283° West 321 369 12,600 950 Climbing Cleveland Center
Fri 07:03:56 PM 43.2511 -76.7436 282° West 342 394 13,600 1,150 Climbing Cleveland Center
Fri 07:04:56 PM 43.2764 -76.8817 284° West 364 419 14,900 1,650 Climbing Cleveland Center
Fri 07:05:56 PM 43.2992 -77.0117 284° West 369 425 16,900 2,100 Climbing Cleveland Center
Fri 07:06:56 PM 43.3178 -77.1389 281° West 363 418 19,100 2,050 Climbing Cleveland Center
Fri 07:07:56 PM 43.3400 -77.2578 284° West 340 391 21,000 1,700 Climbing Cleveland Center
Fri 07:08:56 PM 43.3664 -77.3792 287° West 333 383 22,500 1,350 Climbing Cleveland Center
Fri 07:09:56 PM 43.3944 -77.5006 288° West 333 383 23,700 1,100 Climbing Cleveland Center
Fri 07:10:56 PM 43.4206 -77.6222 286° West 333 383 24,700 1,000 Climbing Cleveland Center
Fri 07:11:56 PM 43.4531 -77.7464 290° West 338 389 25,700 850 Climbing Cleveland Center
Fri 07:12:56 PM 43.4664 -77.8775 278° West 338 389 26,400 800 Climbing Cleveland Center
Fri 07:13:56 PM 43.4553 -78.0267 264° West 353 406 27,300 800 Climbing Cleveland Center
Fri 07:14:56 PM 43.4478 -78.1642 266° West 359 413 28,000 350 Climbing Cleveland Center
Fri 07:15:56 PM 43.4403 -78.3044 266° West 365 420 28,000  Level Cleveland Center
Fri 07:16:56 PM 43.4306 -78.4536 265° West 384 442 28,000  Level Cleveland Center
Fri 07:17:56 PM 43.4186 -78.6056 264° West 395 455 28,000  Level Cleveland Center
Fri 07:18:47 PM 43.4000 -78.7167 257° West 400 460 28,000  Level Toronto Center
Fri 07:19:47 PM 43.4000 -78.8833 270° West 410 472 28,000  Level Toronto Center
Fri 07:20:47 PM 43.3833 -79.0167 260° West 410 472 28,000  Level Toronto Center
Fri 07:21:47 PM 43.3667 -79.1667 261° West 410 472 28,000  Level Toronto Center
Fri 07:22:47 PM 43.3667 -79.3333 270° West 410 472 28,000  Level Toronto Center
Fri 07:23:47 PM 43.3500 -79.5000 262° West 410 472 28,000  Level Toronto Center
Fri 07:24:47 PM 43.3333 -79.6500 261° West 410 472 28,000  Level Toronto Center
Fri 07:25:47 PM 43.3167 -79.8000 261° West 410 472 28,000  Level Toronto Center
Fri 07:26:47 PM 43.3167 -79.9500 270° West 410 472 28,000  Level Toronto Center
Fri 07:27:47 PM 43.3000 -80.1167 262° West 410 472 28,000  Level Toronto Center
Fri 07:28:47 PM 43.2833 -80.2667 261° West 410 472 28,000  Level Toronto Center
Fri 07:29:47 PM 43.2833 -80.4333 270° West 410 472 28,000  Level Toronto Center
Fri 07:30:47 PM 43.2667 -80.6000 262° West 410 472 28,000  Level Toronto Center
Fri 07:31:47 PM 43.2500 -80.7333 260° West 410 472 28,000  Level Toronto Center
Fri 07:32:47 PM 43.2333 -80.9000 262° West 410 472 28,000  Level Toronto Center
Fri 07:33:47 PM 43.2167 -81.0500 261° West 410 472 28,000  Level Toronto Center
Fri 07:34:47 PM 43.2000 -81.2167 262° West 410 472 28,000  Level Toronto Center
Fri 07:35:47 PM 43.2000 -81.3667 270° West 410 472 28,000  Level Toronto Center
Fri 07:36:47 PM 43.1833 -81.5333 262° West 410 472 28,000  Level Toronto Center
Fri 07:37:47 PM 43.1667 -81.6667 260° West 410 472 28,000  Level Toronto Center
Fri 07:38:47 PM 43.1500 -81.8333 262° West 410 472 28,000  Level Toronto Center
Fri 07:39:47 PM 43.1333 -81.9833 261° West 410 472 28,000  Level Toronto Center
Fri 07:40:47 PM 43.1167 -82.1500 262° West 410 472 28,000  Level Toronto Center
Fri 07:41:47 PM 43.1000 -82.3000 261° West 410 472 28,000  Level Toronto Center
Fri 07:42:47 PM 43.1000 -82.4333 270° West 410 472 28,000  Level Toronto Center
Fri 07:43:47 PM 43.0833 -82.6167 263° West 410 472 28,000  Level Toronto Center
Fri 07:44:32 PM 43.0761 -82.7206 265° West 415 478 28,000  Level Cleveland Center
Fri 07:45:32 PM 43.0583 -82.8764 261° West 415 478 28,000  Level Cleveland Center
Fri 07:46:32 PM 43.0450 -83.0292 263° West 415 478 28,000  Level Cleveland Center
Fri 07:47:32 PM 43.0269 -83.1875 261° West 415 478 28,000  Level Cleveland Center
Fri 07:48:32 PM 43.0108 -83.3403 262° West 420 483 28,000  Level Cleveland Center
Fri 07:49:32 PM 42.9925 -83.4956 261° West 420 483 28,000  Level Cleveland Center
Fri 07:50:32 PM 42.9731 -83.6733 262° West 431 496 28,000  Level Cleveland Center
Fri 07:51:32 PM 42.9586 -83.8286 263° West 431 496 28,000  Level Cleveland Center
Fri 07:52:32 PM 42.9436 -83.9839 263° West 426 490 28,000  Level Cleveland Center
Fri 07:53:32 PM 42.9286 -84.1392 263° West 426 490 28,000  Level Cleveland Center
Fri 07:54:32 PM 42.9111 -84.2969 261° West 426 490 28,000  Level Cleveland Center
Fri 07:55:32 PM 42.9003 -84.4353 264° West 421 484 28,000  Level Cleveland Center
Fri 07:56:34 PM 42.8844 -84.5906 262° West 419 482 28,000  Level Chicago Center
Fri 07:57:36 PM 42.8675 -84.7458 262° West 416 479 28,000  Level Chicago Center
Fri 07:58:39 PM 42.8478 -84.9331 262° West 417 480 28,000  Level Chicago Center
Fri 07:59:41 PM 42.8317 -85.0897 262° West 418 481 28,000 -97 Level Chicago Center
Fri 08:00:43 PM 42.8156 -85.2447 262° West 416 479 27,800 -774 Descending Chicago Center
Fri 08:01:45 PM 42.7978 -85.4014 261° West 418 481 26,400 -1,403 Descending Chicago Center
Fri 08:02:47 PM 42.7767 -85.5586 260° West 422 486 24,900 -1,355 Descending Chicago Center
Fri 08:03:49 PM 42.7486 -85.7119 256° West 417 480 23,600 -1,258 Descending Chicago Center
Fri 08:04:51 PM 42.7208 -85.8650 256° West 414 476 22,300 -1,355 Descending Chicago Center
Fri 08:05:53 PM 42.6881 -86.0453 256° West 408 470 20,800 -1,113 Descending Chicago Center
Fri 08:06:55 PM 42.6603 -86.1936 256° West 403 464 20,000 -387 Descending Chicago Center
Fri 08:07:57 PM 42.6336 -86.3389 256° West 398 458 20,000  Level Chicago Center
Fri 08:08:59 PM 42.6067 -86.4819 256° West 392 451 20,000 -97 Level Chicago Center
Fri 08:10:01 PM 42.5783 -86.6267 255° West 394 453 19,800 -1,392 Descending Chicago Center
Fri 08:11:04 PM 42.5442 -86.7925 254° West 386 444 17,100 -2,352 Descending Chicago Center
Fri 08:12:06 PM 42.5064 -86.9283 249° West 379 436 14,900 -2,032 Descending Chicago Center
Fri 08:13:08 PM 42.4697 -87.0594 249° West 372 428 12,900 -1,935 Descending Chicago Center
Fri 08:14:10 PM 42.4350 -87.1869 250° West 364 419 10,900 -1,403 Descending Chicago Center
Fri 08:15:12 PM 42.4008 -87.3114 250° West 352 405 10,000 -435 Descending Chicago Center
Fri 08:16:14 PM 42.3608 -87.4489 249° West 346 398 10,000  Level Chicago Center
Fri 08:17:16 PM 42.3161 -87.5594 241° Southwest 347 399 10,000  Level Chicago Center
Fri 08:18:18 PM 42.2394 -87.6422 219° Southwest 355 409 10,000  Level Chicago Center
Fri 08:19:20 PM 42.1625 -87.7211 217° Southwest 351 404 10,000 -339 Level Chicago Center
Fri 08:20:22 PM 42.1003 -87.7872 218° Southwest 289 333 9,300 -974 Descending Chicago Center
Fri 08:21:17 PM 42.0667 -87.8833 245° Southwest 258 297 8,100 -1,148 Descending Chicago TRACON
Fri 08:22:17 PM 42.0500 -87.9667 255° West 205 236 7,100 -800 Descending Chicago TRACON
Fri 08:23:17 PM 42.0500 -88.0333 270° West 186 214 6,500 -1,041 Descending Chicago TRACON
Fri 08:24:18 PM 42.0500 -88.1000 270° West 195 224 5,000 -1,134 Descending Chicago TRACON
Fri 08:25:24 PM 42.0333 -88.1833 255° West 201 231 4,100 -476 Descending Chicago TRACON
Fri 08:26:24 PM 41.9833 -88.1833 180° South 194 223 4,000 -263 Descending Chicago TRACON
Fri 08:27:18 PM 41.9667 -88.1333 114° Southeast 180 207 3,600 -575 Descending Chicago TRACON
Fri 08:27:37 PM 41.9661 -88.1136 92° East 183 211 3,300 -909 Descending Chicago Center
Fri 08:28:24 PM 41.9667 -88.0667 89° East 171 197 2,600 -894 Descending Chicago TRACON

Login

Don't have an account? Register now (free) for customized features, flight alerts, and more!